Time;durP1;ratioP1;P1;durP2;ratioP2;P2;SDS_P1;SDS_P2;PMS_P1;PMS_P2;Temp;Humidity;BMP_temperature;BMP_pressure;BME280_temperature;BME280_humidity;BME280_pressure;Samples;Min_cycle;Max_cycle;Signal;HPM_P1;HPM_P2
2022/06/13 00:01:09;;;;;;;2.07;1.77;;;;;;;;;;5016552;28;20246;-63
2022/06/13 00:03:37;;;;;;;3.93;1.80;;;;;;;;;;5016342;28;20567;-62
2022/06/13 00:06:05;;;;;;;2.97;1.53;;;;;;;;;;5018490;28;20250;-62
2022/06/13 00:08:33;;;;;;;1.83;1.60;;;;;;;;;;5017665;28;20208;-63
2022/06/13 00:11:01;;;;;;;1.90;1.57;;;;;;;;;;5018105;28;20250;-63
2022/06/13 00:13:29;;;;;;;3.13;1.73;;;;;;;;;;5017372;28;20263;-62
2022/06/13 00:15:59;;;;;;;2.20;1.60;;;;;;;;;;5017716;28;20246;-62
2022/06/13 00:18:27;;;;;;;2.83;1.73;;;;;;;;;;5017605;28;20208;-62
2022/06/13 00:20:55;;;;;;;4.90;1.70;;;;;;;;;;5017283;28;20732;-62
2022/06/13 00:23:23;;;;;;;4.63;1.90;;;;;;;;;;5018364;28;20598;-62
2022/06/13 00:25:51;;;;;;;2.20;1.70;;;;;;;;;;5011738;28;20252;-63
2022/06/13 00:28:19;;;;;;;5.53;2.00;;;;;;;;;;5006196;28;20230;-62
2022/06/13 00:30:47;;;;;;;2.27;1.83;;;;;;;;;;5013984;28;20643;-62
2022/06/13 00:33:17;;;;;;;5.03;1.87;;;;;;;;;;5016638;28;20219;-62
2022/06/13 00:35:45;;;;;;;2.97;2.17;;;;;;;;;;5018180;28;20247;-62
2022/06/13 00:38:13;;;;;;;2.27;1.70;;;;;;;;;;5017173;28;20233;-62
2022/06/13 00:40:41;;;;;;;2.07;1.73;;;;;;;;;;5018086;28;20242;-63
2022/06/13 00:43:08;;;;;;;1.70;1.60;;;;;;;;;;5016787;28;20226;-63
2022/06/13 00:45:37;;;;;;;3.97;1.70;;;;;;;;;;5017025;28;20230;-62
2022/06/13 00:48:05;;;;;;;3.37;1.80;;;;;;;;;;5017237;28;20272;-63
2022/06/13 00:50:36;;;;;;;3.30;2.00;;;;;;;;;;5018120;28;20210;-62
2022/06/13 00:53:06;;;;;;;4.03;1.67;;;;;;;;;;5016842;28;20283;-62
2022/06/13 00:55:37;;;;;;;2.40;1.77;;;;;;;;;;5016579;28;20627;-63
2022/06/13 00:58:06;;;;;;;3.30;1.80;;;;;;;;;;5016945;28;20208;-63
2022/06/13 01:00:35;;;;;;;3.47;1.90;;;;;;;;;;5016531;28;20199;-62
2022/06/13 01:03:04;;;;;;;2.97;1.67;;;;;;;;;;5016634;28;20228;-63
2022/06/13 01:05:34;;;;;;;3.43;1.40;;;;;;;;;;5017849;28;20228;-62
2022/06/13 01:08:06;;;;;;;2.90;1.63;;;;;;;;;;5011533;28;20254;-63
2022/06/13 01:13:21;;;;;;;2.13;1.70;;;;;;;;;;5016134;28;20255;-63
2022/06/13 01:15:57;;;;;;;6.03;1.97;;;;;;;;;;5016936;28;20230;-62
2022/06/13 01:18:35;;;;;;;1.77;1.50;;;;;;;;;;5016652;28;20567;-62
2022/06/13 01:21:16;;;;;;;2.43;1.70;;;;;;;;;;5018087;28;20243;-62
2022/06/13 01:23:57;;;;;;;2.10;1.80;;;;;;;;;;5016081;28;20221;-62
2022/06/13 01:26:49;;;;;;;2.83;1.80;;;;;;;;;;5017590;28;20213;-62
2022/06/13 01:29:27;;;;;;;4.83;1.70;;;;;;;;;;4969830;28;20583;-62
2022/06/13 01:32:01;;;;;;;1.70;1.47;;;;;;;;;;5010807;28;20206;-62
2022/06/13 01:34:33;;;;;;;3.03;1.70;;;;;;;;;;5016324;28;20225;-62
2022/06/13 01:37:09;;;;;;;2.63;1.73;;;;;;;;;;5017480;28;20596;-62
2022/06/13 01:39:54;;;;;;;2.33;1.50;;;;;;;;;;5016258;28;20213;-63
2022/06/13 01:42:26;;;;;;;1.70;1.60;;;;;;;;;;5016459;28;20211;-63
2022/06/13 01:44:59;;;;;;;2.87;1.93;;;;;;;;;;5002988;28;20250;-62
2022/06/13 01:47:31;;;;;;;4.53;1.90;;;;;;;;;;5015139;28;20264;-63
2022/06/13 01:50:02;;;;;;;2.10;1.80;;;;;;;;;;5013891;28;20240;-63
2022/06/13 01:52:34;;;;;;;2.97;1.77;;;;;;;;;;5016140;28;20696;-63
2022/06/13 01:55:09;;;;;;;3.67;1.77;;;;;;;;;;5017063;28;20261;-63
2022/06/13 01:57:38;;;;;;;2.70;1.63;;;;;;;;;;5016742;28;20277;-63
2022/06/13 02:00:08;;;;;;;3.87;2.07;;;;;;;;;;5016744;28;20247;-63
2022/06/13 02:02:40;;;;;;;2.60;1.83;;;;;;;;;;5015180;28;20254;-63
2022/06/13 02:05:13;;;;;;;2.23;1.63;;;;;;;;;;5017015;28;20210;-63
2022/06/13 02:07:43;;;;;;;4.97;1.67;;;;;;;;;;5005381;28;20263;-63
2022/06/13 02:10:32;;;;;;;1.70;1.60;;;;;;;;;;5015791;28;20209;-63
2022/06/13 02:13:03;;;;;;;3.27;1.50;;;;;;;;;;5017202;28;20235;-63
2022/06/13 02:15:33;;;;;;;3.13;1.47;;;;;;;;;;5016158;28;20230;-63
2022/06/13 02:18:05;;;;;;;2.47;1.50;;;;;;;;;;5016260;28;20237;-63
2022/06/13 02:20:36;;;;;;;6.13;1.67;;;;;;;;;;5015955;28;20250;-63
2022/06/13 02:23:08;;;;;;;3.97;1.60;;;;;;;;;;5016924;28;20691;-63
2022/06/13 02:25:38;;;;;;;3.77;1.67;;;;;;;;;;5016085;28;20218;-63
2022/06/13 02:28:08;;;;;;;2.90;1.50;;;;;;;;;;5017087;28;20227;-62
2022/06/13 02:30:39;;;;;;;1.80;1.70;;;;;;;;;;5015969;28;20198;-63
2022/06/13 02:33:09;;;;;;;2.10;1.50;;;;;;;;;;5016197;28;20292;-62
2022/06/13 02:35:40;;;;;;;6.47;1.23;;;;;;;;;;5018563;28;20215;-63
2022/06/13 02:38:11;;;;;;;2.30;1.50;;;;;;;;;;5019237;28;20231;-63
2022/06/13 02:40:44;;;;;;;4.00;1.80;;;;;;;;;;5006332;28;20239;-62
2022/06/13 02:43:13;;;;;;;4.80;1.63;;;;;;;;;;5019580;28;20262;-62
2022/06/13 02:45:44;;;;;;;4.53;1.80;;;;;;;;;;5019763;28;20196;-63
2022/06/13 02:48:17;;;;;;;2.87;1.70;;;;;;;;;;5019305;28;20266;-63
2022/06/13 02:50:49;;;;;;;2.33;1.50;;;;;;;;;;5020415;28;20208;-63
2022/06/13 02:53:19;;;;;;;2.90;1.60;;;;;;;;;;5018853;28;20227;-62
2022/06/13 02:55:53;;;;;;;4.83;1.63;;;;;;;;;;5019794;28;20239;-62
2022/06/13 02:58:25;;;;;;;2.43;1.40;;;;;;;;;;5019206;28;20227;-63
2022/06/13 03:00:58;;;;;;;1.93;1.60;;;;;;;;;;5019237;28;20202;-63
2022/06/13 03:03:32;;;;;;;3.60;1.50;;;;;;;;;;5018542;28;20346;-62
2022/06/13 03:06:02;;;;;;;1.43;1.30;;;;;;;;;;5020211;28;20206;-62
2022/06/13 03:08:40;;;;;;;2.00;1.77;;;;;;;;;;5018946;28;20261;-62
2022/06/13 03:11:13;;;;;;;2.63;1.33;;;;;;;;;;5010715;28;20238;-63
2022/06/13 03:13:47;;;;;;;1.87;1.53;;;;;;;;;;5018785;28;20277;-63
2022/06/13 03:16:20;;;;;;;2.07;1.60;;;;;;;;;;5019060;28;20207;-63
2022/06/13 03:18:52;;;;;;;2.43;1.43;;;;;;;;;;5018643;28;20200;-63
2022/06/13 03:21:24;;;;;;;5.13;1.90;;;;;;;;;;5019824;28;20235;-63
2022/06/13 03:23:55;;;;;;;2.33;2.13;;;;;;;;;;5018575;28;20263;-62
2022/06/13 03:26:26;;;;;;;4.00;1.87;;;;;;;;;;5019403;28;20207;-62
2022/06/13 03:28:57;;;;;;;1.83;1.50;;;;;;;;;;5018272;28;20255;-62
2022/06/13 03:31:28;;;;;;;3.40;1.40;;;;;;;;;;5018452;28;20207;-62
2022/06/13 03:34:00;;;;;;;2.23;1.50;;;;;;;;;;5018341;28;20220;-62
2022/06/13 03:36:31;;;;;;;2.60;1.47;;;;;;;;;;5019480;28;20705;-62
2022/06/13 03:39:02;;;;;;;5.47;1.57;;;;;;;;;;5018193;28;20204;-62
2022/06/13 03:41:33;;;;;;;2.07;1.50;;;;;;;;;;5018141;28;20218;-62
2022/06/13 03:44:06;;;;;;;1.53;1.43;;;;;;;;;;5018251;28;20263;-62
2022/06/13 03:46:35;;;;;;;4.00;1.80;;;;;;;;;;5018935;28;20203;-62
2022/06/13 03:49:10;;;;;;;4.73;1.90;;;;;;;;;;5008353;28;20222;-62
2022/06/13 03:51:41;;;;;;;4.60;1.50;;;;;;;;;;5017219;28;20565;-62
2022/06/13 03:54:12;;;;;;;4.87;1.47;;;;;;;;;;5019323;28;20633;-62
2022/06/13 03:56:46;;;;;;;3.20;1.53;;;;;;;;;;5016553;28;20295;-62
2022/06/13 03:59:16;;;;;;;3.27;1.63;;;;;;;;;;5018312;28;20245;-62
2022/06/13 04:01:47;;;;;;;3.17;1.80;;;;;;;;;;5020695;28;20291;-63
2022/06/13 04:04:18;;;;;;;3.37;1.87;;;;;;;;;;5022212;28;20270;-62
2022/06/13 04:06:46;;;;;;;1.60;1.50;;;;;;;;;;5018930;28;20200;-62
2022/06/13 04:09:16;;;;;;;3.03;1.67;;;;;;;;;;5026386;28;20257;-62
2022/06/13 04:11:54;;;;;;;3.53;1.80;;;;;;;;;;5023482;28;20235;-62
2022/06/13 04:14:33;;;;;;;6.13;1.63;;;;;;;;;;5020318;28;20225;-62
2022/06/13 04:17:05;;;;;;;1.47;1.37;;;;;;;;;;5024896;28;20239;-62
2022/06/13 04:19:40;;;;;;;2.00;1.40;;;;;;;;;;5025541;28;20256;-62
2022/06/13 04:22:13;;;;;;;2.43;1.90;;;;;;;;;;5024376;28;20627;-62
2022/06/13 04:24:49;;;;;;;2.93;1.63;;;;;;;;;;5022531;28;20227;-62
2022/06/13 04:27:21;;;;;;;2.10;1.20;;;;;;;;;;5021321;28;20720;-63
2022/06/13 04:29:53;;;;;;;2.00;1.40;;;;;;;;;;5018202;28;20264;-62
2022/06/13 04:32:23;;;;;;;3.70;1.73;;;;;;;;;;5024764;28;20302;-62
2022/06/13 04:34:53;;;;;;;5.47;2.20;;;;;;;;;;5024785;28;20680;-63
2022/06/13 04:37:23;;;;;;;3.87;1.80;;;;;;;;;;5022385;28;20201;-63
2022/06/13 04:39:52;;;;;;;3.70;1.57;;;;;;;;;;5025883;28;20220;-62
2022/06/13 04:42:21;;;;;;;4.87;1.50;;;;;;;;;;5022764;28;20293;-63
2022/06/13 04:44:50;;;;;;;3.33;1.37;;;;;;;;;;5022762;28;20581;-63
2022/06/13 04:47:19;;;;;;;4.90;1.50;;;;;;;;;;5026138;28;20241;-62
2022/06/13 04:49:48;;;;;;;1.53;1.30;;;;;;;;;;5025236;28;20644;-62
2022/06/13 04:52:19;;;;;;;3.57;1.50;;;;;;;;;;5023027;28;20240;-62
2022/06/13 04:54:48;;;;;;;4.07;1.50;;;;;;;;;;5026061;28;20227;-63
2022/06/13 04:57:18;;;;;;;5.03;1.53;;;;;;;;;;5023372;28;20294;-62
2022/06/13 04:59:46;;;;;;;5.57;1.57;;;;;;;;;;5024557;28;20816;-63
2022/06/13 05:02:17;;;;;;;5.20;1.60;;;;;;;;;;5024222;28;20227;-63
2022/06/13 05:04:45;;;;;;;2.30;1.60;;;;;;;;;;5025244;28;20256;-62
2022/06/13 05:07:14;;;;;;;2.97;1.40;;;;;;;;;;5021911;28;20254;-62
2022/06/13 05:09:45;;;;;;;2.83;1.47;;;;;;;;;;5024894;28;20261;-62
2022/06/13 05:12:15;;;;;;;2.57;1.73;;;;;;;;;;5009415;28;20241;-62
2022/06/13 05:14:45;;;;;;;2.40;1.80;;;;;;;;;;5016294;28;20736;-62
2022/06/13 05:17:22;;;;;;;2.97;1.40;;;;;;;;;;5016874;28;20235;-62
2022/06/13 05:19:54;;;;;;;3.00;1.47;;;;;;;;;;5015116;28;20704;-62
2022/06/13 05:22:34;;;;;;;3.57;1.60;;;;;;;;;;5016799;28;20207;-62
2022/06/13 05:25:14;;;;;;;5.70;1.80;;;;;;;;;;5014201;28;20690;-62
2022/06/13 05:27:42;;;;;;;2.07;1.37;;;;;;;;;;5017567;28;20213;-62
2022/06/13 05:30:13;;;;;;;3.17;1.57;;;;;;;;;;5015260;28;20259;-63
2022/06/13 05:32:41;;;;;;;2.57;1.30;;;;;;;;;;5005734;28;20612;-62
2022/06/13 05:35:12;;;;;;;2.67;1.43;;;;;;;;;;5015050;28;20670;-62
2022/06/13 05:37:41;;;;;;;4.63;1.97;;;;;;;;;;5017567;28;20250;-62
2022/06/13 05:40:13;;;;;;;2.13;1.53;;;;;;;;;;5009189;28;20210;-61
2022/06/13 05:42:43;;;;;;;4.30;1.53;;;;;;;;;;5016285;28;20250;-62
2022/06/13 05:45:12;;;;;;;3.17;1.40;;;;;;;;;;5015978;28;20211;-62
2022/06/13 05:47:41;;;;;;;2.70;1.13;;;;;;;;;;5017020;28;20212;-63
2022/06/13 05:50:13;;;;;;;4.50;1.60;;;;;;;;;;5010694;28;20230;-63
2022/06/13 05:52:42;;;;;;;2.17;1.43;;;;;;;;;;5017286;28;20556;-62
2022/06/13 05:55:11;;;;;;;2.50;1.50;;;;;;;;;;5024774;28;20216;-62
2022/06/13 05:58:00;;;;;;;5.70;1.60;;;;;;;;;;5023294;28;20211;-62
2022/06/13 06:00:30;;;;;;;4.27;2.00;;;;;;;;;;5020736;28;20202;-63
2022/06/13 06:02:58;;;;;;;1.90;1.40;;;;;;;;;;5013727;28;20281;-63
2022/06/13 06:05:26;;;;;;;5.17;1.57;;;;;;;;;;5017009;28;20260;-63
2022/06/13 06:07:54;;;;;;;4.43;1.70;;;;;;;;;;5017246;28;20214;-63
2022/06/13 06:10:26;;;;;;;4.17;1.40;;;;;;;;;;5016065;28;20713;-63
2022/06/13 06:12:54;;;;;;;11.57;2.60;;;;;;;;;;5017064;28;20572;-63
2022/06/13 06:15:22;;;;;;;3.90;1.40;;;;;;;;;;5020903;28;20210;-62
2022/06/13 06:17:50;;;;;;;4.90;1.47;;;;;;;;;;5019171;28;20214;-62
2022/06/13 06:20:24;;;;;;;2.30;1.40;;;;;;;;;;5010944;28;20585;-63
2022/06/13 06:22:52;;;;;;;3.90;1.57;;;;;;;;;;5013207;28;20236;-63
2022/06/13 06:25:20;;;;;;;2.57;1.40;;;;;;;;;;5018411;28;20205;-62
2022/06/13 06:27:49;;;;;;;3.73;1.40;;;;;;;;;;5014913;28;20251;-61
2022/06/13 06:30:18;;;;;;;3.20;1.60;;;;;;;;;;5012380;28;20223;-64
2022/06/13 06:32:52;;;;;;;5.10;1.70;;;;;;;;;;5018410;28;20200;-64
2022/06/13 06:35:20;;;;;;;2.47;1.40;;;;;;;;;;5019816;28;20206;-62
2022/06/13 06:37:49;;;;;;;1.73;1.30;;;;;;;;;;5019370;28;20253;-63
2022/06/13 06:40:18;;;;;;;6.07;1.57;;;;;;;;;;5014748;28;20242;-65
2022/06/13 06:42:47;;;;;;;3.57;1.53;;;;;;;;;;5017784;28;20228;-62
2022/06/13 06:45:24;;;;;;;2.77;1.20;;;;;;;;;;5020160;28;20612;-64
2022/06/13 06:47:53;;;;;;;2.53;1.60;;;;;;;;;;5020220;28;20706;-63
2022/06/13 06:50:22;;;;;;;2.07;1.67;;;;;;;;;;5017487;28;20221;-62
2022/06/13 06:52:51;;;;;;;2.27;1.23;;;;;;;;;;5013335;28;20205;-63
2022/06/13 07:00:57;;;;;;;2.90;1.30;;;;;;;;;;4998854;28;20205;-61
2022/06/13 07:03:25;;;;;;;7.27;1.40;;;;;;;;;;5008346;28;20716;-63
2022/06/13 07:05:53;;;;;;;4.20;1.73;;;;;;;;;;5016411;28;20238;-65
2022/06/13 07:08:21;;;;;;;3.10;1.30;;;;;;;;;;5018164;28;20216;-61
2022/06/13 07:10:49;;;;;;;4.93;1.53;;;;;;;;;;5006162;28;20221;-60
2022/06/13 07:13:18;;;;;;;6.00;1.30;;;;;;;;;;5012169;28;20719;-62
2022/06/13 07:15:49;;;;;;;5.33;1.63;;;;;;;;;;5008996;28;20265;-62
2022/06/13 07:18:18;;;;;;;5.70;1.73;;;;;;;;;;5017874;28;20204;-61
2022/06/13 07:20:46;;;;;;;6.77;1.70;;;;;;;;;;5022082;28;20252;-61
2022/06/13 07:23:14;;;;;;;1.83;1.27;;;;;;;;;;5015252;28;20237;-63
2022/06/13 07:25:42;;;;;;;3.67;1.80;;;;;;;;;;5013127;28;20225;-63
2022/06/13 07:28:10;;;;;;;3.90;1.30;;;;;;;;;;5018302;28;20266;-62
2022/06/13 07:30:38;;;;;;;1.73;1.27;;;;;;;;;;5016830;28;20659;-59
2022/06/13 07:33:06;;;;;;;4.47;1.40;;;;;;;;;;5012601;28;20586;-62
2022/06/13 07:35:36;;;;;;;6.00;1.67;;;;;;;;;;5008122;28;20236;-64
2022/06/13 07:38:19;;;;;;;4.70;1.47;;;;;;;;;;5017055;28;20237;-61
2022/06/13 07:40:53;;;;;;;1.90;1.30;;;;;;;;;;5017286;28;20202;-62
2022/06/13 07:43:27;;;;;;;3.27;1.50;;;;;;;;;;5010891;28;20225;-66
2022/06/13 07:45:57;;;;;;;3.07;1.40;;;;;;;;;;5019034;28;20199;-68
2022/06/13 07:48:26;;;;;;;4.60;1.33;;;;;;;;;;5018807;28;20678;-71
2022/06/13 07:50:56;;;;;;;4.77;1.60;;;;;;;;;;5017187;28;20284;-64
2022/06/13 07:53:24;;;;;;;2.60;1.57;;;;;;;;;;5017024;28;20759;-63
2022/06/13 07:56:13;;;;;;;6.20;1.50;;;;;;;;;;5014971;28;20238;-64
2022/06/13 07:58:42;;;;;;;2.60;1.60;;;;;;;;;;5013933;28;20242;-64
2022/06/13 08:01:11;;;;;;;1.37;1.27;;;;;;;;;;5012732;28;20231;-65
2022/06/13 08:03:39;;;;;;;4.57;1.63;;;;;;;;;;5005969;28;20245;-64
2022/06/13 08:06:09;;;;;;;4.53;1.50;;;;;;;;;;5012662;28;20205;-64
2022/06/13 08:08:39;;;;;;;7.70;2.30;;;;;;;;;;5013880;28;20206;-64
2022/06/13 08:11:08;;;;;;;5.27;1.93;;;;;;;;;;5014534;28;20224;-63
2022/06/13 08:13:37;;;;;;;5.43;1.70;;;;;;;;;;5016224;28;20227;-63
2022/06/13 08:16:06;;;;;;;5.37;1.67;;;;;;;;;;5015732;28;20734;-63
2022/06/13 08:18:35;;;;;;;3.57;1.30;;;;;;;;;;5007975;28;20674;-63
2022/06/13 08:21:04;;;;;;;4.70;1.63;;;;;;;;;;5015530;28;20215;-63
2022/06/13 08:23:34;;;;;;;5.70;2.00;;;;;;;;;;5015962;28;20231;-64
2022/06/13 08:26:02;;;;;;;3.93;1.73;;;;;;;;;;5011037;28;20233;-63
2022/06/13 08:28:31;;;;;;;4.03;1.30;;;;;;;;;;5016716;28;20551;-63
2022/06/13 08:31:01;;;;;;;4.47;1.60;;;;;;;;;;5019010;28;20227;-63
2022/06/13 08:33:29;;;;;;;2.50;1.53;;;;;;;;;;5013983;28;20607;-64
2022/06/13 08:35:58;;;;;;;2.70;1.23;;;;;;;;;;5012053;28;20207;-63
2022/06/13 08:38:26;;;;;;;4.97;1.73;;;;;;;;;;5007344;28;20287;-64
2022/06/13 08:41:02;;;;;;;1.30;1.20;;;;;;;;;;5009103;28;20205;-63
2022/06/13 08:43:50;;;;;;;5.03;1.63;;;;;;;;;;5014077;28;20223;-63
2022/06/13 08:46:24;;;;;;;5.50;1.93;;;;;;;;;;4995916;28;20256;-65
2022/06/13 08:48:56;;;;;;;5.87;1.77;;;;;;;;;;5015068;28;20208;-62
2022/06/13 08:51:30;;;;;;;5.10;1.57;;;;;;;;;;5014204;28;20236;-63
2022/06/13 08:53:59;;;;;;;1.77;1.53;;;;;;;;;;5011423;28;20302;-63
2022/06/13 08:56:35;;;;;;;5.27;1.57;;;;;;;;;;5006685;28;20223;-63
2022/06/13 08:59:22;;;;;;;2.60;1.40;;;;;;;;;;5007160;28;20208;-65
2022/06/13 09:01:52;;;;;;;4.47;1.60;;;;;;;;;;5005345;28;20203;-62
2022/06/13 09:04:22;;;;;;;2.63;1.43;;;;;;;;;;5012790;28;20235;-62
2022/06/13 09:06:52;;;;;;;4.73;1.43;;;;;;;;;;5000108;28;20201;-62
2022/06/13 09:09:21;;;;;;;7.17;1.77;;;;;;;;;;5011002;28;20197;-63
2022/06/13 09:12:14;;;;;;;4.23;1.60;;;;;;;;;;5007588;28;20224;-62
2022/06/13 09:14:47;;;;;;;2.50;1.57;;;;;;;;;;5013914;28;20713;-62
2022/06/13 09:17:18;;;;;;;4.93;1.30;;;;;;;;;;5014661;28;20310;-62
2022/06/13 09:19:54;;;;;;;3.90;1.43;;;;;;;;;;5015493;28;20226;-62
2022/06/13 09:22:26;;;;;;;1.73;1.37;;;;;;;;;;5013640;28;20227;-64
2022/06/13 09:25:01;;;;;;;5.80;1.70;;;;;;;;;;5015692;28;20227;-63
2022/06/13 09:27:34;;;;;;;2.87;1.37;;;;;;;;;;5014159;28;20218;-63
2022/06/13 09:30:05;;;;;;;4.70;1.90;;;;;;;;;;5012055;28;20200;-62
2022/06/13 09:32:43;;;;;;;4.30;1.40;;;;;;;;;;5012323;28;20227;-63
2022/06/13 09:35:15;;;;;;;1.73;1.40;;;;;;;;;;5005603;28;20671;-58
2022/06/13 09:37:48;;;;;;;3.97;1.43;;;;;;;;;;5011075;28;20339;-60
2022/06/13 09:40:18;;;;;;;2.70;1.30;;;;;;;;;;5014514;28;20269;-60
2022/06/13 09:43:07;;;;;;;3.00;1.30;;;;;;;;;;5015261;28;20199;-59
2022/06/13 09:45:50;;;;;;;4.90;1.47;;;;;;;;;;5014565;28;20813;-58
2022/06/13 09:48:27;;;;;;;4.00;1.13;;;;;;;;;;5014514;28;20273;-59
2022/06/13 09:51:05;;;;;;;5.67;1.60;;;;;;;;;;5017586;28;20199;-59
2022/06/13 09:53:38;;;;;;;5.27;1.60;;;;;;;;;;5012619;28;20625;-59
2022/06/13 09:56:08;;;;;;;4.20;1.50;;;;;;;;;;5019015;28;20738;-60
2022/06/13 09:58:45;;;;;;;3.87;1.80;;;;;;;;;;5018953;28;20197;-60
2022/06/13 10:01:17;;;;;;;1.33;1.23;;;;;;;;;;5019953;28;20674;-60
2022/06/13 10:03:50;;;;;;;2.50;1.50;;;;;;;;;;5019572;28;20235;-60
2022/06/13 10:06:21;;;;;;;2.83;1.20;;;;;;;;;;5011174;28;20200;-60
2022/06/13 10:08:52;;;;;;;6.70;1.60;;;;;;;;;;5019811;28;20197;-61
2022/06/13 10:11:24;;;;;;;4.90;1.60;;;;;;;;;;5018523;28;20284;-60
2022/06/13 10:14:06;;;;;;;4.93;2.17;;;;;;;;;;5011059;28;20679;-60
2022/06/13 10:16:40;;;;;;;3.00;1.83;;;;;;;;;;5006934;28;20236;-62
2022/06/13 10:19:16;;;;;;;3.53;1.40;;;;;;;;;;5024822;28;20233;-59
2022/06/13 10:21:45;;;;;;;6.87;1.93;;;;;;;;;;5016653;28;20202;-59
2022/06/13 10:24:18;;;;;;;5.13;1.60;;;;;;;;;;5013442;28;20696;-60
2022/06/13 10:26:51;;;;;;;2.47;1.50;;;;;;;;;;5016707;28;20225;-61
2022/06/13 10:29:26;;;;;;;6.20;1.57;;;;;;;;;;5009787;28;20292;-59
2022/06/13 10:32:02;;;;;;;2.40;1.50;;;;;;;;;;5027643;28;20663;-62
2022/06/13 10:34:37;;;;;;;2.43;1.60;;;;;;;;;;5005338;28;20285;-60
2022/06/13 10:37:11;;;;;;;1.50;1.20;;;;;;;;;;5020972;28;20208;-60
2022/06/13 10:39:39;;;;;;;3.57;1.37;;;;;;;;;;5004287;28;20253;-59
2022/06/13 10:42:09;;;;;;;1.60;1.23;;;;;;;;;;5000111;28;20207;-60
2022/06/13 10:44:38;;;;;;;4.07;1.40;;;;;;;;;;5012148;28;20306;-58
2022/06/13 10:47:13;;;;;;;2.53;1.30;;;;;;;;;;5017393;28;20216;-58
2022/06/13 10:49:43;;;;;;;4.00;1.60;;;;;;;;;;5008072;28;20216;-59
2022/06/13 10:52:15;;;;;;;2.43;1.80;;;;;;;;;;5020466;28;20270;-59
2022/06/13 10:54:45;;;;;;;3.10;1.30;;;;;;;;;;5011820;28;20272;-59
2022/06/13 10:57:14;;;;;;;2.70;1.67;;;;;;;;;;5018896;28;20235;-59
2022/06/13 10:59:42;;;;;;;3.93;1.83;;;;;;;;;;5025117;28;20286;-59
2022/06/13 11:02:24;;;;;;;2.67;1.27;;;;;;;;;;5017351;28;20617;-59
2022/06/13 11:05:04;;;;;;;2.20;1.37;;;;;;;;;;5015824;28;20226;-59
2022/06/13 11:07:33;;;;;;;5.37;1.80;;;;;;;;;;5023828;28;20208;-59
2022/06/13 11:10:02;;;;;;;2.97;1.60;;;;;;;;;;5017831;28;20613;-59
2022/06/13 11:12:31;;;;;;;8.43;2.10;;;;;;;;;;5018330;28;20263;-59
2022/06/13 11:23:37;;;;;;;4.57;1.97;;;;;;;;;;4973311;28;20222;-59
2022/06/13 11:27:39;;;;;;;3.40;1.60;;;;;;;;;;4997017;28;20218;-59
2022/06/13 11:28:54;;;;;;;3.57;1.40;;;;;;;;;;5010631;28;20206;-59
2022/06/13 11:31:25;;;;;;;3.37;1.37;;;;;;;;;;5014780;28;20222;-58
2022/06/13 11:33:56;;;;;;;2.97;1.87;;;;;;;;;;5023764;28;20237;-59
2022/06/13 11:36:26;;;;;;;4.83;1.90;;;;;;;;;;5019568;28;20593;-59
2022/06/13 11:38:55;;;;;;;4.63;1.70;;;;;;;;;;5016154;28;20233;-59
2022/06/13 11:41:25;;;;;;;4.53;1.70;;;;;;;;;;5017243;28;20246;-62
2022/06/13 11:43:54;;;;;;;1.67;1.37;;;;;;;;;;5014139;28;20258;-65
2022/06/13 11:46:37;;;;;;;3.13;1.83;;;;;;;;;;5014730;28;20606;-62
2022/06/13 11:49:22;;;;;;;5.80;1.77;;;;;;;;;;5017899;28;20691;-62
2022/06/13 11:51:52;;;;;;;3.27;1.50;;;;;;;;;;5016642;28;20211;-63
2022/06/13 11:54:25;;;;;;;6.63;1.77;;;;;;;;;;5018120;28;20232;-59
2022/06/13 11:57:11;;;;;;;3.37;1.83;;;;;;;;;;5018452;28;20235;-59
2022/06/13 11:59:44;;;;;;;3.40;1.40;;;;;;;;;;5015047;28;20231;-59
2022/06/13 12:02:20;;;;;;;3.97;1.67;;;;;;;;;;5018608;28;20314;-59
2022/06/13 12:04:53;;;;;;;2.13;1.17;;;;;;;;;;5025291;28;20221;-60
2022/06/13 12:07:23;;;;;;;3.47;1.67;;;;;;;;;;5011336;28;20297;-59
2022/06/13 12:10:02;;;;;;;6.80;1.63;;;;;;;;;;5008925;28;20208;-57
2022/06/13 12:12:43;;;;;;;3.33;1.57;;;;;;;;;;5018910;28;20223;-60
2022/06/13 12:15:11;;;;;;;4.60;1.50;;;;;;;;;;5019679;28;20258;-59
2022/06/13 12:17:40;;;;;;;4.80;1.50;;;;;;;;;;5003607;28;20266;-60
2022/06/13 12:20:13;;;;;;;2.40;1.43;;;;;;;;;;5017877;28;20208;-60
2022/06/13 12:22:45;;;;;;;1.60;1.20;;;;;;;;;;5018342;28;20197;-60
2022/06/13 12:25:15;;;;;;;3.93;1.77;;;;;;;;;;5018152;28;20242;-60
2022/06/13 12:27:47;;;;;;;3.07;1.40;;;;;;;;;;5011844;28;20200;-60
2022/06/13 12:30:24;;;;;;;3.73;1.80;;;;;;;;;;5018405;28;20215;-60
2022/06/13 12:32:53;;;;;;;3.90;1.60;;;;;;;;;;5017694;28;20246;-60
2022/06/13 12:35:30;;;;;;;3.30;1.77;;;;;;;;;;5018289;28;20212;-60
2022/06/13 12:38:03;;;;;;;4.27;2.37;;;;;;;;;;5017910;28;20618;-60
2022/06/13 12:40:37;;;;;;;1.80;1.60;;;;;;;;;;5016185;28;20236;-60
2022/06/13 12:43:23;;;;;;;3.63;1.60;;;;;;;;;;5018107;28;20256;-59
2022/06/13 12:45:57;;;;;;;3.23;1.57;;;;;;;;;;5017865;28;20579;-60
2022/06/13 12:48:36;;;;;;;4.67;1.60;;;;;;;;;;5017990;28;20242;-60
2022/06/13 12:51:15;;;;;;;4.10;1.90;;;;;;;;;;5018325;28;20214;-60
2022/06/13 12:53:52;;;;;;;3.07;1.40;;;;;;;;;;5018206;28;20245;-60
2022/06/13 12:56:28;;;;;;;2.20;1.57;;;;;;;;;;5017516;28;20742;-60
2022/06/13 12:59:02;;;;;;;5.33;1.70;;;;;;;;;;5017924;28;20209;-60
2022/06/13 13:01:33;;;;;;;4.03;1.80;;;;;;;;;;5018328;28;20204;-60
2022/06/13 13:04:20;;;;;;;4.20;1.73;;;;;;;;;;5017897;28;20231;-60
2022/06/13 13:06:54;;;;;;;3.60;1.43;;;;;;;;;;5018297;28;20206;-60
2022/06/13 13:09:32;;;;;;;3.80;2.03;;;;;;;;;;5017908;28;20207;-60
2022/06/13 13:12:12;;;;;;;5.00;1.80;;;;;;;;;;5018053;28;20243;-60
2022/06/13 13:14:47;;;;;;;2.50;1.70;;;;;;;;;;5017600;28;20669;-60
2022/06/13 13:17:19;;;;;;;8.30;1.47;;;;;;;;;;5018036;28;20214;-60
2022/06/13 13:19:53;;;;;;;5.83;2.10;;;;;;;;;;5017423;28;20239;-60
2022/06/13 13:22:26;;;;;;;1.70;1.57;;;;;;;;;;5018094;28;20215;-60
2022/06/13 13:25:06;;;;;;;1.70;1.60;;;;;;;;;;5017377;28;20227;-60
2022/06/13 13:27:38;;;;;;;3.40;1.60;;;;;;;;;;5017746;28;20234;-60
2022/06/13 13:30:14;;;;;;;3.97;2.17;;;;;;;;;;5012866;28;20239;-60
2022/06/13 13:32:59;;;;;;;3.53;1.47;;;;;;;;;;5017781;28;20210;-60
2022/06/13 13:35:31;;;;;;;2.63;1.80;;;;;;;;;;5023291;28;20226;-60
2022/06/13 13:38:02;;;;;;;2.90;1.40;;;;;;;;;;5017620;28;20245;-60
2022/06/13 13:40:34;;;;;;;4.30;2.03;;;;;;;;;;5017477;28;20698;-60
2022/06/13 13:43:05;;;;;;;3.67;1.80;;;;;;;;;;5017746;28;20229;-60
2022/06/13 13:45:36;;;;;;;3.60;2.20;;;;;;;;;;5017602;28;20727;-60
2022/06/13 13:48:09;;;;;;;2.93;1.83;;;;;;;;;;5017337;28;20619;-60
2022/06/13 13:50:43;;;;;;;3.53;1.70;;;;;;;;;;5017662;28;20250;-60
2022/06/13 13:53:14;;;;;;;3.27;3.00;;;;;;;;;;5017579;28;20271;-60
2022/06/13 13:55:43;;;;;;;3.67;2.47;;;;;;;;;;5017038;28;20242;-60
2022/06/13 13:58:13;;;;;;;4.40;1.60;;;;;;;;;;5017572;28;20237;-60
2022/06/13 14:00:46;;;;;;;3.73;1.70;;;;;;;;;;5017522;28;20205;-60
2022/06/13 14:03:17;;;;;;;2.73;1.90;;;;;;;;;;5017477;28;20231;-60
2022/06/13 14:05:48;;;;;;;4.43;1.53;;;;;;;;;;5017212;28;20212;-60
2022/06/13 14:08:18;;;;;;;4.40;2.03;;;;;;;;;;5017351;28;20207;-64
2022/06/13 14:10:47;;;;;;;2.47;1.30;;;;;;;;;;5017249;28;20210;-64
2022/06/13 14:13:22;;;;;;;2.53;1.50;;;;;;;;;;5017163;28;20593;-66
2022/06/13 14:16:01;;;;;;;2.20;1.70;;;;;;;;;;5017059;28;20281;-65
2022/06/13 14:18:34;;;;;;;3.40;2.17;;;;;;;;;;5017070;28;20208;-66
2022/06/13 14:21:03;;;;;;;3.30;1.83;;;;;;;;;;5017146;28;20407;-65
2022/06/13 14:23:36;;;;;;;6.82;2.10;;;;;;;;;;5016873;28;20239;-65
2022/06/13 14:26:04;;;;;;;2.70;1.67;;;;;;;;;;5016820;28;20294;-64
2022/06/13 14:28:46;;;;;;;2.17;1.60;;;;;;;;;;5026121;28;20203;-64
2022/06/13 14:31:14;;;;;;;3.53;1.57;;;;;;;;;;5024463;28;20198;-66
2022/06/13 14:37:21;;;;;;;4.30;1.60;;;;;;;;;;5026864;28;20613;-66
2022/06/13 14:39:56;;;;;;;5.07;2.07;;;;;;;;;;4931645;29;20203;-66
2022/06/13 14:42:38;;;;;;;4.40;1.80;;;;;;;;;;4928207;29;20265;-66
2022/06/13 14:45:08;;;;;;;4.27;2.10;;;;;;;;;;4985518;28;20213;-67
2022/06/13 14:47:53;;;;;;;3.13;1.70;;;;;;;;;;5024744;28;20225;-64
2022/06/13 14:50:39;;;;;;;2.97;1.50;;;;;;;;;;5027879;28;20261;-65
2022/06/13 14:53:26;;;;;;;3.77;1.23;;;;;;;;;;5023996;28;20288;-65
2022/06/13 14:56:11;;;;;;;4.10;1.40;;;;;;;;;;5022985;28;20247;-65
2022/06/13 14:59:00;;;;;;;3.30;1.63;;;;;;;;;;5019754;28;21414;-65
2022/06/13 15:01:31;;;;;;;3.37;1.60;;;;;;;;;;5012691;28;20205;-64
2022/06/13 15:04:20;;;;;;;2.83;2.30;;;;;;;;;;5020103;28;20245;-64
2022/06/13 15:07:06;;;;;;;3.00;1.53;;;;;;;;;;5016838;28;20211;-64
2022/06/13 15:09:38;;;;;;;3.00;1.60;;;;;;;;;;5020325;28;20207;-63
2022/06/13 15:12:09;;;;;;;2.93;1.70;;;;;;;;;;5018679;28;20233;-62
2022/06/13 15:14:40;;;;;;;2.10;1.27;;;;;;;;;;5017941;28;20266;-62
2022/06/13 15:17:10;;;;;;;3.57;1.37;;;;;;;;;;5018011;28;20214;-61
2022/06/13 15:19:38;;;;;;;2.83;1.67;;;;;;;;;;5018680;28;20307;-61
2022/06/13 15:22:13;;;;;;;4.53;1.67;;;;;;;;;;5018077;28;20289;-61
2022/06/13 15:24:46;;;;;;;6.20;1.87;;;;;;;;;;5017605;28;20222;-61
2022/06/13 15:27:14;;;;;;;1.30;1.13;;;;;;;;;;5019353;28;20218;-61
2022/06/13 15:29:42;;;;;;;3.37;1.40;;;;;;;;;;5019429;28;20244;-61
2022/06/13 15:32:25;;;;;;;3.60;1.60;;;;;;;;;;5019897;28;20240;-61
2022/06/13 15:34:56;;;;;;;3.50;1.27;;;;;;;;;;5024527;28;20260;-61